createdAt,value
2019-02-11T00:00:39.889Z,2.10
2019-02-11T00:01:39.841Z,2.60
2019-02-11T00:02:39.799Z,0.90
2019-02-11T00:03:39.756Z,2.30
2019-02-11T00:04:39.711Z,0.60
2019-02-11T00:05:39.681Z,0.70
2019-02-11T00:06:39.625Z,1.20
2019-02-11T00:07:39.575Z,1.70
2019-02-11T00:08:39.534Z,1.40
2019-02-11T00:09:39.487Z,1.60
2019-02-11T00:10:39.449Z,1.00
2019-02-11T00:11:39.398Z,1.00
2019-02-11T00:12:39.361Z,1.20
2019-02-11T00:13:39.317Z,1.30
2019-02-11T00:14:39.265Z,0.50
2019-02-11T00:15:39.219Z,1.70
2019-02-11T00:16:39.177Z,1.30
2019-02-11T00:17:39.137Z,0.70
2019-02-11T00:18:39.088Z,1.50
2019-02-11T00:19:39.050Z,1.40
2019-02-11T00:20:38.999Z,1.30
2019-02-11T00:21:38.949Z,1.10
2019-02-11T00:22:38.908Z,1.20
2019-02-11T00:23:38.865Z,1.60
2019-02-11T00:24:38.821Z,1.90
2019-02-11T00:25:38.775Z,0.60
2019-02-11T00:26:38.730Z,0.50
2019-02-11T00:27:38.690Z,0.70
2019-02-11T00:28:38.642Z,1.10
2019-02-11T00:29:38.596Z,2.40
2019-02-11T00:30:38.549Z,2.20
2019-02-11T00:31:38.508Z,1.30
2019-02-11T00:32:38.468Z,0.50
2019-02-11T00:33:38.417Z,0.70
2019-02-11T00:34:38.375Z,0.60
2019-02-11T00:35:38.335Z,0.60
2019-02-11T00:36:38.290Z,1.80
2019-02-11T00:37:38.241Z,0.60
2019-02-11T00:38:38.198Z,2.40
2019-02-11T00:39:38.150Z,1.20
2019-02-11T00:40:38.107Z,1.20
2019-02-11T00:41:38.061Z,0.60
2019-02-11T00:42:38.021Z,1.00
2019-02-11T00:43:37.977Z,0.50
2019-02-11T00:44:37.930Z,0.60
2019-02-11T00:45:37.885Z,1.00
2019-02-11T00:46:37.842Z,1.00
2019-02-11T00:47:37.798Z,1.00
2019-02-11T00:48:37.754Z,2.00
2019-02-11T00:49:37.708Z,0.60
2019-02-11T00:50:37.666Z,0.50
2019-02-11T00:51:37.625Z,0.60
2019-02-11T00:52:37.574Z,0.60
2019-02-11T00:53:37.534Z,0.40
2019-02-11T00:54:37.485Z,0.70
2019-02-11T00:55:37.454Z,1.80
2019-02-11T00:56:37.395Z,0.70
2019-02-11T00:57:37.350Z,1.30
2019-02-11T00:58:37.306Z,0.50
2019-02-11T00:59:37.262Z,1.90
2019-02-11T01:00:37.218Z,0.70
2019-02-11T01:01:37.171Z,0.80
2019-02-11T01:02:37.133Z,0.80
2019-02-11T01:03:37.099Z,0.90
2019-02-11T01:04:37.040Z,0.40
2019-02-11T01:05:36.994Z,4.10
2019-02-11T01:06:36.962Z,1.50
2019-02-11T01:07:36.906Z,0.60
2019-02-11T01:08:36.872Z,0.80
2019-02-11T01:09:36.815Z,0.40
2019-02-11T01:10:36.773Z,1.10
2019-02-11T01:11:36.728Z,0.90
2019-02-11T01:12:36.683Z,0.60
2019-02-11T01:13:36.639Z,0.50
2019-02-11T01:14:36.593Z,0.80
2019-02-11T01:15:36.553Z,1.10
2019-02-11T01:16:36.506Z,0.80
2019-02-11T01:17:36.473Z,0.50
2019-02-11T01:18:36.415Z,0.70
2019-02-11T01:19:36.375Z,0.50
2019-02-11T01:20:36.327Z,0.50
2019-02-11T01:21:36.288Z,0.60
2019-02-11T01:22:36.235Z,1.50
2019-02-11T01:23:36.193Z,1.20
2019-02-11T01:24:36.146Z,0.50
2019-02-11T01:25:36.109Z,0.50
2019-02-11T01:26:36.056Z,0.90
2019-02-11T01:27:36.019Z,0.80
2019-02-11T01:28:35.971Z,1.00
2019-02-11T01:29:35.926Z,0.50
2019-02-11T01:30:35.879Z,0.70
2019-02-11T01:31:35.838Z,0.50
2019-02-11T01:32:35.791Z,0.80
2019-02-11T01:33:35.749Z,0.90
2019-02-11T01:34:35.702Z,1.40
2019-02-11T01:35:35.659Z,0.40
2019-02-11T01:36:35.614Z,0.90
2019-02-11T01:37:35.573Z,0.60
2019-02-11T01:38:35.524Z,0.50
2019-02-11T01:39:35.486Z,0.40
2019-02-11T01:40:35.437Z,0.70
2019-02-11T01:41:35.399Z,0.70
2019-02-11T01:42:35.350Z,0.90
2019-02-11T01:43:36.335Z,0.60
2019-02-11T01:44:35.259Z,0.90
2019-02-11T01:45:35.213Z,1.40
2019-02-11T01:46:35.168Z,0.70
2019-02-11T01:47:35.132Z,0.80
2019-02-11T01:48:35.080Z,1.40
2019-02-11T01:49:35.035Z,1.00
2019-02-11T01:50:34.990Z,0.80
2019-02-11T01:51:34.947Z,0.90
2019-02-11T01:52:34.904Z,1.30
2019-02-11T01:53:34.855Z,1.40
2019-02-11T01:54:34.813Z,0.90
2019-02-11T01:55:34.769Z,0.70
2019-02-11T01:56:34.724Z,0.40
2019-02-11T01:57:34.678Z,0.60
2019-02-11T01:58:34.635Z,1.10
2019-02-11T01:59:34.590Z,0.60
2019-02-11T02:00:34.549Z,0.60
2019-02-11T02:01:34.501Z,0.80
2019-02-11T02:02:34.457Z,1.50
2019-02-11T02:03:34.414Z,1.30
2019-02-11T02:04:34.373Z,0.60
2019-02-11T02:05:34.323Z,0.60
2019-02-11T02:06:34.277Z,0.30
2019-02-11T02:07:34.235Z,0.70
2019-02-11T02:08:34.191Z,0.60
2019-02-11T02:09:34.146Z,0.30
2019-02-11T02:10:34.099Z,0.80
2019-02-11T02:11:34.059Z,0.40
2019-02-11T02:12:34.012Z,0.50
2019-02-11T02:13:33.967Z,0.80
2019-02-11T02:14:33.923Z,0.50
2019-02-11T02:15:33.878Z,0.60
2019-02-11T02:16:33.843Z,0.50
2019-02-11T02:17:33.791Z,1.00
2019-02-11T02:18:33.747Z,0.60
2019-02-11T02:19:33.706Z,0.80
2019-02-11T02:20:33.663Z,0.70
2019-02-11T02:21:33.610Z,1.20
2019-02-11T02:22:33.570Z,0.80
2019-02-11T02:23:33.524Z,0.70
2019-02-11T02:24:33.487Z,0.50
2019-02-11T02:25:33.432Z,1.60
2019-02-11T02:26:33.389Z,0.60
2019-02-11T02:27:33.346Z,0.50
2019-02-11T02:28:33.343Z,0.50
2019-02-11T02:29:33.255Z,0.70
2019-02-11T02:30:33.215Z,0.70
2019-02-11T02:31:33.172Z,0.70
2019-02-11T02:32:33.126Z,0.40
2019-02-11T02:33:33.076Z,0.70
2019-02-11T02:34:33.039Z,0.60
2019-02-11T02:35:32.988Z,0.50
2019-02-11T02:36:32.943Z,0.50
2019-02-11T02:37:32.904Z,0.40
2019-02-11T02:38:32.858Z,0.50
2019-02-11T02:39:32.814Z,0.70
2019-02-11T02:40:32.770Z,0.50
2019-02-11T02:41:32.721Z,0.90
2019-02-11T02:42:32.678Z,0.60
2019-02-11T02:43:32.635Z,1.20
2019-02-11T02:44:32.590Z,0.60
2019-02-11T02:45:32.545Z,0.80
2019-02-11T02:46:32.499Z,0.60
2019-02-11T02:47:32.454Z,0.60
2019-02-11T02:48:32.411Z,0.70
2019-02-11T02:49:32.365Z,0.40
2019-02-11T02:50:32.322Z,0.50
2019-02-11T02:51:32.273Z,0.50
2019-02-11T02:52:32.233Z,0.70
2019-02-11T02:53:32.190Z,0.60
2019-02-11T02:54:32.148Z,0.60
2019-02-11T02:55:32.101Z,0.90
2019-02-11T02:56:32.055Z,1.40
2019-02-11T02:57:32.007Z,1.20
2019-02-11T02:58:31.965Z,0.60
2019-02-11T02:59:31.919Z,0.90
2019-02-11T03:00:31.876Z,2.40
2019-02-11T03:01:31.831Z,0.50
2019-02-11T03:02:31.794Z,1.80
2019-02-11T03:03:31.743Z,0.90
2019-02-11T03:04:31.700Z,0.60
2019-02-11T03:05:31.652Z,0.70
2019-02-11T03:06:31.612Z,0.60
2019-02-11T03:07:31.565Z,0.90
2019-02-11T03:08:31.521Z,0.60
2019-02-11T03:09:31.471Z,1.00
2019-02-11T03:10:31.434Z,0.50
2019-02-11T03:11:31.387Z,0.80
2019-02-11T03:12:31.352Z,1.50
2019-02-11T03:13:31.297Z,0.70
2019-02-11T03:14:31.254Z,0.60
2019-02-11T03:15:31.218Z,0.90
2019-02-11T03:16:31.164Z,0.40
2019-02-11T03:17:31.119Z,0.80
2019-02-11T03:18:31.077Z,0.80
2019-02-11T03:19:31.046Z,0.80
2019-02-11T03:20:30.986Z,0.80
2019-02-11T03:21:30.953Z,0.70
2019-02-11T03:22:30.897Z,0.60
2019-02-11T03:23:30.852Z,1.10
2019-02-11T03:24:30.816Z,0.60
2019-02-11T03:25:30.776Z,0.90
2019-02-11T03:26:30.719Z,0.80
2019-02-11T03:27:30.675Z,0.70
2019-02-11T03:28:30.629Z,0.80
2019-02-11T03:29:30.585Z,0.50
2019-02-11T03:30:30.544Z,0.50
2019-02-11T03:31:30.503Z,0.60
2019-02-11T03:32:30.459Z,1.30
2019-02-11T03:33:30.412Z,0.60
2019-02-11T03:34:30.363Z,1.00
2019-02-11T03:35:30.323Z,0.50
2019-02-11T03:36:30.275Z,1.00
2019-02-11T03:37:30.235Z,1.00
2019-02-11T03:38:30.184Z,1.10
2019-02-11T03:39:30.153Z,1.00
2019-02-11T03:40:30.097Z,0.80
2019-02-11T03:41:30.049Z,0.70
2019-02-11T03:42:30.006Z,0.80
2019-02-11T03:43:29.970Z,1.30
2019-02-11T03:44:29.921Z,0.90
2019-02-11T03:45:29.883Z,1.20
2019-02-11T03:46:29.837Z,0.90
2019-02-11T03:47:29.789Z,1.30
2019-02-11T03:48:29.739Z,1.40
2019-02-11T03:49:29.701Z,0.70
2019-02-11T03:50:29.654Z,1.00
2019-02-11T03:51:29.613Z,1.00
2019-02-11T03:52:29.575Z,0.60
2019-02-11T03:53:29.528Z,0.70
2019-02-11T03:54:29.472Z,1.10
2019-02-11T03:55:29.424Z,0.90
2019-02-11T03:56:29.404Z,1.70
2019-02-11T03:57:29.339Z,0.60
2019-02-11T03:58:29.292Z,2.00
2019-02-11T03:59:29.250Z,1.80
2019-02-11T04:00:29.205Z,1.80
2019-02-11T04:01:29.163Z,1.10
2019-02-11T04:02:29.116Z,0.60
2019-02-11T04:03:29.072Z,1.30
2019-02-11T04:04:29.026Z,1.50
2019-02-11T04:05:28.982Z,1.70
2019-02-11T04:06:28.943Z,0.90
2019-02-11T04:07:28.893Z,0.80
2019-02-11T04:08:28.849Z,1.90
2019-02-11T04:09:28.810Z,1.70
2019-02-11T04:10:28.759Z,1.00
2019-02-11T04:11:28.715Z,1.40
2019-02-11T04:12:28.678Z,0.80
2019-02-11T04:13:28.628Z,0.80
2019-02-11T04:14:28.582Z,1.50
2019-02-11T04:15:28.560Z,2.20
2019-02-11T04:16:28.494Z,0.80
2019-02-11T04:17:28.447Z,1.20
2019-02-11T04:18:28.411Z,0.60
2019-02-11T04:19:28.358Z,0.90
2019-02-11T04:20:28.313Z,1.50
2019-02-11T04:21:28.271Z,0.80
2019-02-11T04:22:28.224Z,1.50
2019-02-11T04:23:28.181Z,1.70
2019-02-11T04:24:28.133Z,0.90
2019-02-11T04:25:28.091Z,0.80
2019-02-11T04:26:28.048Z,0.90
2019-02-11T04:27:28.003Z,1.40
2019-02-11T04:28:27.962Z,0.70
2019-02-11T04:29:27.916Z,1.30
2019-02-11T04:30:27.869Z,1.00
2019-02-11T04:31:27.825Z,1.40
2019-02-11T04:32:27.780Z,1.50
2019-02-11T04:33:27.736Z,0.70
2019-02-11T04:34:27.689Z,2.00
2019-02-11T04:35:27.645Z,1.50
2019-02-11T04:36:27.602Z,1.40
2019-02-11T04:37:27.558Z,0.80
2019-02-11T04:38:27.512Z,1.10
2019-02-11T04:39:27.471Z,1.20
2019-02-11T04:40:27.423Z,1.70
2019-02-11T04:41:27.378Z,1.20
2019-02-11T04:42:27.335Z,1.10
2019-02-11T04:43:27.297Z,1.00
2019-02-11T04:44:33.845Z,1.10
2019-02-11T04:45:27.201Z,1.40
2019-02-11T04:46:27.162Z,1.80
2019-02-11T04:47:27.113Z,1.90
2019-02-11T04:48:27.070Z,1.50
2019-02-11T04:49:27.023Z,0.70
2019-02-11T04:50:26.978Z,1.00
2019-02-11T04:51:26.943Z,1.30
2019-02-11T04:52:26.891Z,1.70
2019-02-11T04:53:26.845Z,1.30
2019-02-11T04:54:26.856Z,1.60
2019-02-11T04:55:26.757Z,0.70
2019-02-11T04:56:26.710Z,1.50
2019-02-11T04:57:26.668Z,0.90
2019-02-11T04:58:26.622Z,1.30
2019-02-11T04:59:26.580Z,1.00
2019-02-11T05:00:26.530Z,1.00
2019-02-11T05:01:26.487Z,1.80
2019-02-11T05:02:26.443Z,1.10
2019-02-11T05:03:26.401Z,1.00
2019-02-11T05:04:26.359Z,1.20
2019-02-11T05:05:26.311Z,1.80
2019-02-11T05:06:26.264Z,1.30
2019-02-11T05:07:26.222Z,1.60
2019-02-11T05:08:26.177Z,1.80
2019-02-11T05:09:26.132Z,1.70
2019-02-11T05:10:26.087Z,1.60
2019-02-11T05:11:26.045Z,1.60
2019-02-11T05:12:26.017Z,1.40
2019-02-11T05:13:25.954Z,1.00
2019-02-11T05:14:25.916Z,2.00
2019-02-11T05:15:25.866Z,1.80
2019-02-11T05:16:25.825Z,1.80
2019-02-11T05:17:25.784Z,1.90
2019-02-11T05:18:25.733Z,2.40
2019-02-11T05:19:25.694Z,1.50
2019-02-11T05:20:25.643Z,1.10
2019-02-11T05:21:25.599Z,1.10
2019-02-11T05:22:25.555Z,1.60
2019-02-11T05:23:25.509Z,1.50
2019-02-11T05:24:25.474Z,1.00
2019-02-11T05:25:25.419Z,1.40
2019-02-11T05:26:25.389Z,1.70
2019-02-11T05:27:25.350Z,2.20
2019-02-11T05:28:25.287Z,1.20
2019-02-11T05:29:25.255Z,1.60
2019-02-11T05:30:25.197Z,1.90
2019-02-11T05:31:25.153Z,1.10
2019-02-11T05:32:25.111Z,1.60
2019-02-11T05:33:25.085Z,1.50
2019-02-11T05:34:25.025Z,1.70
2019-02-11T05:35:24.974Z,2.60
2019-02-11T05:36:24.931Z,1.20
2019-02-11T05:37:24.886Z,1.40
2019-02-11T05:38:24.860Z,1.60
2019-02-11T05:39:24.797Z,1.90
2019-02-11T05:40:24.756Z,1.70
2019-02-11T05:41:24.710Z,1.90
2019-02-11T05:42:24.710Z,0.90
2019-02-11T05:43:24.637Z,1.10
2019-02-11T05:44:24.574Z,1.20
2019-02-11T05:45:24.529Z,1.90
2019-02-11T05:46:24.489Z,1.00
2019-02-11T05:47:24.443Z,1.10
2019-02-11T05:48:24.396Z,1.60
2019-02-11T05:49:24.352Z,1.80
2019-02-11T05:50:24.307Z,1.30
2019-02-11T05:51:24.259Z,1.60
2019-02-11T05:52:24.218Z,1.70
2019-02-11T05:53:24.171Z,0.90
2019-02-11T05:54:24.134Z,1.80
2019-02-11T05:55:24.084Z,1.50
2019-02-11T05:56:24.041Z,1.30
2019-02-11T05:57:23.993Z,2.00
2019-02-11T05:58:23.954Z,1.60
2019-02-11T05:59:23.907Z,2.00
2019-02-11T06:00:23.864Z,1.20
2019-02-11T06:01:23.818Z,1.30
2019-02-11T06:02:23.783Z,1.80
2019-02-11T06:03:23.727Z,2.50
2019-02-11T06:04:23.684Z,2.50
2019-02-11T06:05:23.637Z,1.50
2019-02-11T06:06:23.597Z,2.00
2019-02-11T06:07:23.552Z,1.40
2019-02-11T06:08:23.513Z,1.40
2019-02-11T06:09:23.477Z,2.00
2019-02-11T06:10:23.436Z,1.40
2019-02-11T06:11:23.377Z,1.60
2019-02-11T06:12:23.329Z,1.50
2019-02-11T06:13:23.280Z,2.10
2019-02-11T06:14:23.242Z,1.40
2019-02-11T06:15:23.196Z,1.40
2019-02-11T06:16:23.151Z,1.20
2019-02-11T06:17:23.105Z,2.20
2019-02-11T06:18:23.060Z,2.50
2019-02-11T06:19:23.019Z,2.90
2019-02-11T06:20:22.975Z,1.90
2019-02-11T06:21:22.936Z,1.10
2019-02-11T06:22:22.883Z,2.80
2019-02-11T06:23:22.838Z,2.40
2019-02-11T06:24:22.798Z,1.80
2019-02-11T06:25:22.752Z,3.60
2019-02-11T06:26:22.705Z,2.00
2019-02-11T06:27:22.677Z,2.80
2019-02-11T06:28:22.667Z,3.20
2019-02-11T06:29:22.595Z,1.90
2019-02-11T06:30:22.531Z,2.50
2019-02-11T06:31:22.482Z,3.00
2019-02-11T06:32:22.437Z,2.50
2019-02-11T06:33:22.400Z,3.00
2019-02-11T06:34:22.360Z,3.30
2019-02-11T06:35:22.303Z,3.40
2019-02-11T06:36:22.260Z,2.60
2019-02-11T06:37:22.219Z,2.70
2019-02-11T06:39:41.075Z,0.70
2019-02-11T06:40:40.992Z,1.90
2019-02-11T06:42:33.868Z,3.10
2019-02-11T06:43:33.736Z,4.20
2019-02-11T06:45:26.589Z,3.00
2019-02-11T06:46:26.512Z,4.00
2019-02-11T06:48:19.804Z,2.60
2019-02-11T06:49:19.746Z,2.80
2019-02-11T06:51:13.053Z,7.00
2019-02-11T06:52:12.978Z,2.10
2019-02-11T06:54:05.775Z,4.80
2019-02-11T06:55:05.726Z,3.10
2019-02-11T06:56:59.544Z,3.70
2019-02-11T06:57:59.449Z,4.60
2019-02-11T06:59:52.246Z,11.20
2019-02-11T07:00:52.193Z,5.90
2019-02-11T07:02:45.045Z,4.30
2019-02-11T07:03:44.943Z,3.50
2019-02-11T07:05:37.756Z,5.60
2019-02-11T07:06:37.685Z,5.40
2019-02-11T07:08:30.689Z,4.00
2019-02-11T07:09:30.662Z,3.80
2019-02-11T07:11:23.458Z,8.00
2019-02-11T07:12:23.387Z,4.00
2019-02-11T07:14:16.715Z,6.10
2019-02-11T07:15:22.225Z,9.60
2019-02-11T07:17:09.481Z,7.60
2019-02-11T07:18:09.405Z,6.00
2019-02-11T07:20:02.208Z,5.00
2019-02-11T07:21:02.156Z,3.50
2019-02-11T07:22:55.079Z,6.50
2019-02-11T07:23:54.914Z,6.40
2019-02-11T07:25:47.865Z,7.20
2019-02-11T07:26:47.661Z,5.60
2019-02-11T07:28:40.655Z,3.40
2019-02-11T07:29:40.641Z,4.90
2019-02-11T07:31:33.581Z,6.20
2019-02-11T07:32:33.359Z,4.00
2019-02-11T07:33:33.336Z,5.20
2019-02-11T07:34:33.310Z,6.20
2019-02-11T07:35:33.222Z,4.70
2019-02-11T07:36:33.178Z,15.50
2019-02-11T07:37:33.141Z,5.70
2019-02-11T07:38:33.089Z,5.40
2019-02-11T07:39:33.045Z,6.90
2019-02-11T07:40:33.000Z,4.20
2019-02-11T07:41:32.953Z,7.20
2019-02-11T07:42:32.911Z,4.20
2019-02-11T07:43:32.866Z,5.60
2019-02-11T07:44:32.824Z,6.10
2019-02-11T07:45:32.779Z,4.50
2019-02-11T07:46:32.738Z,3.60
2019-02-11T07:47:32.691Z,6.30
2019-02-11T07:48:32.649Z,3.80
2019-02-11T07:49:32.600Z,4.30
2019-02-11T07:50:32.557Z,5.00
2019-02-11T07:51:32.512Z,5.10
2019-02-11T07:52:32.469Z,4.40
2019-02-11T07:53:32.426Z,3.80
2019-02-11T07:54:32.380Z,3.90
2019-02-11T07:55:32.336Z,3.80
2019-02-11T07:56:32.292Z,4.40
2019-02-11T07:57:32.248Z,5.40
2019-02-11T07:58:32.203Z,5.00
2019-02-11T07:59:32.158Z,5.90
2019-02-11T08:00:32.132Z,4.50
2019-02-11T08:01:32.072Z,3.90
2019-02-11T08:02:32.052Z,5.40
2019-02-11T08:03:31.982Z,3.80
2019-02-11T08:04:31.946Z,3.80
2019-02-11T08:05:31.893Z,2.70
2019-02-11T08:06:31.849Z,3.40
2019-02-11T08:07:31.824Z,2.80
2019-02-11T08:08:31.761Z,3.00
2019-02-11T08:09:31.717Z,4.70
2019-02-11T08:10:31.673Z,2.80
2019-02-11T08:11:31.631Z,3.10
2019-02-11T08:12:31.584Z,3.40
2019-02-11T08:13:31.536Z,1.90
2019-02-11T08:14:31.494Z,5.70
2019-02-11T08:15:38.365Z,3.60
2019-02-11T08:16:31.412Z,3.90
2019-02-11T08:17:31.375Z,4.20
2019-02-11T08:18:31.318Z,3.40
2019-02-11T08:19:31.273Z,4.10
2019-02-11T08:20:31.230Z,3.30
2019-02-11T08:21:31.186Z,2.80
2019-02-11T08:22:31.145Z,2.80
2019-02-11T08:23:31.095Z,2.40
2019-02-11T08:24:31.054Z,3.00
2019-02-11T08:25:31.008Z,3.00
2019-02-11T08:26:30.963Z,4.20
2019-02-11T08:27:30.918Z,2.20
2019-02-11T08:28:30.875Z,3.80
2019-02-11T08:29:30.829Z,2.60
2019-02-11T08:30:30.788Z,2.70
2019-02-11T08:31:30.741Z,3.60
2019-02-11T08:32:30.715Z,2.30
2019-02-11T08:33:30.657Z,3.20
2019-02-11T08:34:30.613Z,2.30
2019-02-11T08:35:30.569Z,2.80
2019-02-11T08:36:30.708Z,2.40
2019-02-11T08:37:30.610Z,3.10
2019-02-11T08:38:30.434Z,3.00
2019-02-11T08:39:30.388Z,3.40
2019-02-11T08:40:30.347Z,3.30
2019-02-11T08:41:30.305Z,2.10
2019-02-11T08:42:30.263Z,2.60
2019-02-11T08:43:30.338Z,2.40
2019-02-11T08:44:30.251Z,3.40
2019-02-11T08:45:30.125Z,1.80
2019-02-11T08:46:30.092Z,2.80
2019-02-11T08:47:30.034Z,2.90
2019-02-11T08:48:30.163Z,2.30
2019-02-11T08:49:30.169Z,2.10
2019-02-11T08:50:29.899Z,2.30
2019-02-11T08:51:29.849Z,4.30
2019-02-11T08:52:29.812Z,2.40
2019-02-11T08:53:29.769Z,2.00
2019-02-11T08:54:29.722Z,2.70
2019-02-11T08:55:29.837Z,2.80
2019-02-11T08:56:29.638Z,3.20
2019-02-11T08:57:29.590Z,2.40
2019-02-11T08:58:29.545Z,1.70
2019-02-11T08:59:29.500Z,3.30
2019-02-11T09:00:29.461Z,3.90
2019-02-11T09:01:29.418Z,3.90
2019-02-11T09:02:29.370Z,4.20
2019-02-11T09:03:29.326Z,3.00
2019-02-11T09:04:29.279Z,2.50
2019-02-11T09:05:29.235Z,1.80
2019-02-11T09:06:29.191Z,3.20
2019-02-11T09:07:29.146Z,3.30
2019-02-11T09:08:29.103Z,2.50
2019-02-11T09:09:29.058Z,2.60
2019-02-11T09:10:29.078Z,2.30
2019-02-11T09:11:28.985Z,1.80
2019-02-11T09:12:28.978Z,2.70
2019-02-11T09:13:28.881Z,2.10
2019-02-11T09:14:28.837Z,2.60
2019-02-11T09:15:28.794Z,2.90
2019-02-11T09:16:28.748Z,4.30
2019-02-11T09:17:28.701Z,2.40
2019-02-11T09:18:28.663Z,2.60
2019-02-11T09:19:28.669Z,5.40
2019-02-11T09:20:28.572Z,4.20
2019-02-11T09:21:28.525Z,5.90
2019-02-11T09:22:28.481Z,4.10
2019-02-11T09:23:28.523Z,3.60
2019-02-11T09:24:28.401Z,2.90
2019-02-11T09:25:28.352Z,4.10
2019-02-11T09:26:28.305Z,3.60
2019-02-11T09:27:28.271Z,5.60
2019-02-11T09:28:28.217Z,3.90
2019-02-11T09:29:28.174Z,4.90
2019-02-11T09:30:28.127Z,2.60
2019-02-11T09:31:28.087Z,2.80
2019-02-11T09:32:28.041Z,3.20
2019-02-11T09:33:27.998Z,4.50
2019-02-11T09:34:27.952Z,4.20
2019-02-11T09:35:27.908Z,3.30
2019-02-11T09:36:27.864Z,3.70
2019-02-11T09:37:27.827Z,3.00
2019-02-11T09:38:27.775Z,3.20
2019-02-11T09:39:27.731Z,5.60
2019-02-11T09:40:27.691Z,4.30
2019-02-11T09:41:27.642Z,4.70
2019-02-11T09:42:27.610Z,2.80
2019-02-11T09:43:27.558Z,3.80
2019-02-11T09:44:29.610Z,2.20
2019-02-11T09:45:27.468Z,3.60
2019-02-11T09:46:27.419Z,3.40
2019-02-11T09:47:27.388Z,4.00
2019-02-11T09:48:27.332Z,7.70
2019-02-11T09:49:27.292Z,4.80
2019-02-11T09:50:27.242Z,6.70
2019-02-11T09:51:27.199Z,2.70
2019-02-11T09:52:27.155Z,3.60
2019-02-11T09:53:27.110Z,4.60
2019-02-11T09:54:27.064Z,5.70
2019-02-11T09:55:27.021Z,5.30
2019-02-11T09:56:26.990Z,10.30
2019-02-11T09:57:26.933Z,7.00
2019-02-11T09:58:26.888Z,5.10
2019-02-11T09:59:26.846Z,4.80
2019-02-11T10:00:26.800Z,6.40
2019-02-11T10:01:26.815Z,4.70
2019-02-11T10:02:26.711Z,2.80
2019-02-11T10:03:26.667Z,5.60
2019-02-11T10:04:26.618Z,3.90
2019-02-11T10:05:26.579Z,4.60
2019-02-11T10:06:26.605Z,5.20
2019-02-11T10:07:26.510Z,3.00
2019-02-11T10:08:26.590Z,5.20
2019-02-11T10:09:26.403Z,3.60
2019-02-11T10:10:26.388Z,4.40
2019-02-11T10:11:26.404Z,3.00
2019-02-11T10:12:26.377Z,2.60
2019-02-11T10:13:26.295Z,3.50
2019-02-11T10:14:26.299Z,4.00
2019-02-11T10:15:26.224Z,4.00
2019-02-11T10:16:26.109Z,2.70
2019-02-11T10:17:29.888Z,4.70
2019-02-11T10:18:26.085Z,5.40
2019-02-11T10:19:25.962Z,5.00
2019-02-11T10:20:25.919Z,5.70
2019-02-11T10:21:25.874Z,4.80
2019-02-11T10:22:25.879Z,2.80
2019-02-11T10:23:25.785Z,4.60
2019-02-11T10:24:25.747Z,3.30
2019-02-11T10:25:25.697Z,3.10
2019-02-11T10:26:25.653Z,3.40
2019-02-11T10:27:25.608Z,5.20
2019-02-11T10:28:25.564Z,4.40
2019-02-11T10:29:25.520Z,3.30
2019-02-11T10:30:25.497Z,2.20
2019-02-11T10:31:25.433Z,2.80
2019-02-11T10:32:25.395Z,4.10
2019-02-11T10:33:25.343Z,2.80
2019-02-11T10:34:25.298Z,5.00
2019-02-11T10:35:25.307Z,3.10
2019-02-11T10:36:25.287Z,3.90
2019-02-11T10:37:25.240Z,4.30
2019-02-11T10:38:25.120Z,3.90
2019-02-11T10:39:25.170Z,4.20
2019-02-11T10:40:25.042Z,4.50
2019-02-11T10:41:25.025Z,3.80
2019-02-11T10:42:24.960Z,4.10
2019-02-11T10:43:24.971Z,3.00
2019-02-11T10:44:24.858Z,3.50
2019-02-11T10:45:24.868Z,2.10
2019-02-11T10:46:24.770Z,3.20
2019-02-11T10:47:24.727Z,4.10
2019-02-11T10:48:25.458Z,3.50
2019-02-11T10:49:24.638Z,3.40
2019-02-11T10:50:24.592Z,5.50
2019-02-11T10:51:24.644Z,4.20
2019-02-11T10:52:24.515Z,3.20
2019-02-11T10:53:24.548Z,3.00
2019-02-11T10:54:24.419Z,2.90
2019-02-11T10:55:24.374Z,4.20
2019-02-11T10:56:24.329Z,5.20
2019-02-11T10:57:24.335Z,2.50
2019-02-11T10:58:24.304Z,4.60
2019-02-11T10:59:24.262Z,4.40
2019-02-11T11:00:24.176Z,3.90
2019-02-11T11:01:24.108Z,2.80
2019-02-11T11:02:24.085Z,2.10
2019-02-11T11:03:24.022Z,4.00
2019-02-11T11:04:23.974Z,2.90
2019-02-11T11:05:23.932Z,3.50
2019-02-11T11:06:23.893Z,4.50
2019-02-11T11:07:23.913Z,3.30
2019-02-11T11:08:23.851Z,2.50
2019-02-11T11:09:23.829Z,2.50
2019-02-11T11:10:23.713Z,3.50
2019-02-11T11:11:23.720Z,3.30
2019-02-11T11:12:23.631Z,3.80
2019-02-11T11:13:23.701Z,5.50
2019-02-11T11:14:23.538Z,2.30
2019-02-11T11:15:23.490Z,3.90
2019-02-11T11:16:29.335Z,3.50
2019-02-11T11:17:23.413Z,3.60
2019-02-11T11:18:23.358Z,3.40
2019-02-11T11:19:23.315Z,4.00
2019-02-11T11:20:23.269Z,4.00
2019-02-11T11:21:23.300Z,3.90
2019-02-11T11:22:23.183Z,2.80
2019-02-11T11:23:23.141Z,2.90
2019-02-11T11:24:23.181Z,2.40
2019-02-11T11:25:23.129Z,2.80
2019-02-11T11:26:23.016Z,2.90
2019-02-11T11:27:23.020Z,2.70
2019-02-11T11:28:22.919Z,4.90
2019-02-11T11:29:22.874Z,2.30
2019-02-11T11:30:22.960Z,2.60
2019-02-11T11:31:23.453Z,4.80
2019-02-11T11:32:22.841Z,1.90
2019-02-11T11:33:22.706Z,3.60
2019-02-11T11:34:22.652Z,1.80
2019-02-11T11:35:22.664Z,4.30
2019-02-11T11:36:22.563Z,2.60
2019-02-11T11:37:22.521Z,2.20
2019-02-11T11:38:22.474Z,4.40
2019-02-11T11:39:22.440Z,6.20
2019-02-11T11:40:22.392Z,5.40
2019-02-11T11:41:22.347Z,3.70
2019-02-11T11:42:22.298Z,3.50
2019-02-11T11:43:22.258Z,5.00
2019-02-11T11:44:22.212Z,3.30
2019-02-11T11:45:22.204Z,4.40
2019-02-11T11:46:22.124Z,3.50
2019-02-11T11:47:22.082Z,2.70
2019-02-11T11:48:22.035Z,3.80
2019-02-11T11:49:22.010Z,2.70
2019-02-11T11:50:21.949Z,8.50
2019-02-11T11:51:21.915Z,3.30
2019-02-11T11:52:21.862Z,4.90
2019-02-11T11:53:21.890Z,2.60
2019-02-11T11:54:21.890Z,5.50
2019-02-11T11:55:21.737Z,3.40
2019-02-11T11:56:21.801Z,3.60
2019-02-11T11:57:21.647Z,3.80
2019-02-11T11:58:21.650Z,2.90
2019-02-11T11:59:21.569Z,5.10
2019-02-11T12:00:21.525Z,5.60
2019-02-11T12:01:21.471Z,3.70
2019-02-11T12:02:21.436Z,4.40
2019-02-11T12:03:21.389Z,4.50
2019-02-11T12:04:21.343Z,2.40
2019-02-11T12:05:21.295Z,3.80
2019-02-11T12:06:24.910Z,3.70
2019-02-11T12:07:21.199Z,4.10
2019-02-11T12:08:21.159Z,3.40
2019-02-11T12:09:21.129Z,4.00
2019-02-11T12:10:21.153Z,4.70
2019-02-11T12:11:21.105Z,2.50
2019-02-11T12:12:21.040Z,11.80
2019-02-11T12:13:23.346Z,4.10
2019-02-11T12:14:20.916Z,4.80
2019-02-11T12:15:20.863Z,6.40
2019-02-11T12:16:20.809Z,4.80
2019-02-11T12:17:20.771Z,3.00
2019-02-11T12:18:20.717Z,5.50
2019-02-11T12:19:20.769Z,4.00
2019-02-11T12:20:20.744Z,4.00
2019-02-11T14:23:05.948Z,3.00
2019-02-11T14:24:05.800Z,2.30
2019-02-11T14:25:58.597Z,5.30
2019-02-11T14:26:58.523Z,4.50
2019-02-11T14:28:51.313Z,4.60
2019-02-11T14:29:51.259Z,6.10
2019-02-11T14:31:44.061Z,5.60
2019-02-11T14:32:44.011Z,5.00
2019-02-11T14:34:36.779Z,19.80
2019-02-11T14:35:36.754Z,5.50
2019-02-11T14:37:29.557Z,4.80
2019-02-11T14:38:29.457Z,6.30
2019-02-11T14:40:22.275Z,10.10
2019-02-11T14:41:22.188Z,8.80
2019-02-11T14:43:14.996Z,7.70
2019-02-11T14:44:14.928Z,10.30
2019-02-11T14:46:07.770Z,4.80
2019-02-11T14:47:07.687Z,6.10
2019-02-11T14:48:07.710Z,7.10
2019-02-11T14:49:07.614Z,7.00
2019-02-11T14:50:07.536Z,9.30
2019-02-11T14:51:07.489Z,10.80
2019-02-11T14:52:07.452Z,9.50
2019-02-11T14:53:07.392Z,10.00
2019-02-11T14:54:07.353Z,11.90
2019-02-11T14:55:07.300Z,10.20
2019-02-11T14:56:07.260Z,7.70
2019-02-11T15:24:46.914Z,17.10
2019-02-11T15:25:46.832Z,14.60
2019-02-11T15:26:46.771Z,15.20
2019-02-11T15:27:46.732Z,12.00
2019-02-11T15:28:46.678Z,11.40
2019-02-11T15:29:46.629Z,16.90
2019-02-11T15:30:46.581Z,12.30
2019-02-11T15:31:46.534Z,10.50
2019-02-11T15:32:46.554Z,12.00
2019-02-11T15:33:46.436Z,6.90
2019-02-11T15:34:46.391Z,8.50
2019-02-11T15:35:46.345Z,9.60
2019-02-11T15:36:46.299Z,8.50
2019-02-11T15:37:46.246Z,8.00
2019-02-11T15:38:46.200Z,12.90
2019-02-11T15:39:46.154Z,7.10
2019-02-11T15:40:46.107Z,7.10
2019-02-11T15:41:46.099Z,9.10
2019-02-11T15:42:46.013Z,8.80
2019-02-11T15:43:45.966Z,12.40
2019-02-11T15:44:45.922Z,18.80
2019-02-11T15:45:45.876Z,20.40
2019-02-11T15:46:45.834Z,26.50
2019-02-11T15:47:45.785Z,39.50
2019-02-11T15:48:45.748Z,32.10
2019-02-11T15:49:45.696Z,34.30
2019-02-11T15:50:45.648Z,36.50
2019-02-11T15:51:45.605Z,35.20
2019-02-11T15:52:45.564Z,36.80
2019-02-11T15:53:45.518Z,36.70
2019-02-11T15:54:45.468Z,36.30
2019-02-11T15:55:45.423Z,38.00
2019-02-11T15:56:45.379Z,35.10
2019-02-11T15:57:45.336Z,41.00
2019-02-11T15:58:45.307Z,36.90
2019-02-11T15:59:45.266Z,38.10
2019-02-11T16:00:45.200Z,37.50
2019-02-11T16:01:45.156Z,35.30
2019-02-11T16:02:45.174Z,30.60
2019-02-11T16:03:45.110Z,41.40
2019-02-11T16:04:45.021Z,37.60
2019-02-11T16:05:49.695Z,39.20
2019-02-11T16:06:44.937Z,37.90
2019-02-11T16:07:44.894Z,35.20
2019-02-11T16:08:44.846Z,38.20
2019-02-11T16:09:44.843Z,36.10